createdAt,value
2023-01-02T00:02:03.204Z,99192.69
2023-01-02T00:06:06.905Z,99181.47
2023-01-02T00:10:11.481Z,99172.72
2023-01-02T00:14:14.861Z,99177.47
2023-01-02T00:18:17.819Z,99174.59
2023-01-02T00:22:20.721Z,99172.72
2023-01-02T00:26:24.867Z,99162.44
2023-01-02T00:30:31.090Z,99174.03
2023-01-02T00:34:39.077Z,99172.34
2023-01-02T00:38:42.047Z,99162.53
2023-01-02T00:42:46.181Z,99169.25
2023-01-02T00:46:50.152Z,99163.88
2023-01-02T00:50:52.881Z,99159.34
2023-01-02T00:54:56.252Z,99143.78
2023-01-02T00:59:00.708Z,99152.84
2023-01-02T01:03:03.714Z,99156.03
2023-01-02T01:07:07.346Z,99161.81
2023-01-02T01:11:13.146Z,99162.53
2023-01-02T01:15:17.352Z,99148.69
2023-01-02T01:19:20.382Z,99152.72
2023-01-02T01:23:23.903Z,99157.53
2023-01-02T01:27:26.783Z,99159.53
2023-01-02T01:31:30.887Z,99164.53
2023-01-02T01:35:34.665Z,99159.50
2023-01-02T01:39:37.261Z,99149.84
2023-01-02T01:43:44.864Z,99150.25
2023-01-02T01:47:52.748Z,99160.00
2023-01-02T01:51:57.166Z,99161.84
2023-01-02T01:56:03.256Z,99156.25
2023-01-02T02:00:08.406Z,99154.16
2023-01-02T02:04:12.967Z,99163.38
2023-01-02T02:08:18.922Z,99158.13
2023-01-02T02:12:27.692Z,99143.09
2023-01-02T02:16:37.927Z,99145.41
2023-01-02T02:20:44.066Z,99158.13
2023-01-02T02:25:01.958Z,99166.97
2023-01-02T02:29:27.105Z,99150.66
2023-01-02T02:33:39.278Z,99151.78
2023-01-02T02:37:48.100Z,99153.38
2023-01-02T02:41:58.453Z,99154.94
2023-01-02T02:46:06.239Z,99138.53
2023-01-02T02:50:13.321Z,99158.19
2023-01-02T02:54:20.037Z,99150.69
2023-01-02T02:58:23.854Z,99144.63
2023-01-02T03:02:27.034Z,99158.38
2023-01-02T03:06:45.774Z,99142.53
2023-01-02T03:10:53.204Z,99131.41
2023-01-02T03:14:59.754Z,99139.41
2023-01-02T03:19:06.291Z,99129.00
2023-01-02T03:23:14.351Z,99141.81
2023-01-02T03:27:22.036Z,99138.47
2023-01-02T03:31:26.906Z,99145.59
2023-01-02T03:35:34.483Z,99157.59
2023-01-02T03:39:42.678Z,99156.38
2023-01-02T03:43:52.972Z,99154.69
2023-01-02T03:48:03.314Z,99155.38
2023-01-02T03:52:06.372Z,99157.47
2023-01-02T03:56:17.758Z,99141.88
2023-01-02T04:00:21.711Z,99174.72
2023-01-02T04:04:32.209Z,99165.59
2023-01-02T04:08:38.772Z,99177.00
2023-01-02T04:12:46.997Z,99167.78
2023-01-02T04:16:51.025Z,99169.97
2023-01-02T04:20:56.028Z,99162.41
2023-01-02T04:25:03.315Z,99159.63
2023-01-02T04:29:08.049Z,99170.47
2023-01-02T04:33:11.845Z,99176.66
2023-01-02T04:37:30.932Z,99170.19
2023-01-02T04:41:35.255Z,99174.97
2023-01-02T04:45:39.430Z,99184.06
2023-01-02T04:49:42.134Z,99180.00
2023-01-02T04:53:45.188Z,99172.88
2023-01-02T04:57:48.192Z,99175.28
2023-01-02T05:01:52.334Z,99182.72
2023-01-02T05:06:01.501Z,99178.22
2023-01-02T05:10:04.771Z,99192.78
2023-01-02T05:14:08.087Z,99181.63
2023-01-02T05:18:12.597Z,99192.84
2023-01-02T05:22:32.912Z,99213.22
2023-01-02T05:26:35.874Z,99209.47
2023-01-02T05:30:39.198Z,99209.19
2023-01-02T05:34:43.287Z,99226.09
2023-01-02T05:38:46.189Z,99231.59
2023-01-02T05:42:49.295Z,99224.94
2023-01-02T05:46:52.471Z,99226.75
2023-01-02T05:50:56.658Z,99232.00
2023-01-02T05:54:59.765Z,99233.63
2023-01-02T05:59:02.484Z,99251.63
2023-01-02T06:03:05.382Z,99245.50
2023-01-02T06:07:09.540Z,99244.59
2023-01-02T06:11:12.652Z,99218.50
2023-01-02T06:15:15.323Z,99232.66
2023-01-02T06:19:18.045Z,99225.94
2023-01-02T06:23:22.987Z,99235.44
2023-01-02T06:27:25.669Z,99228.84
2023-01-02T06:31:29.861Z,99235.63
2023-01-02T06:35:33.073Z,99237.41
2023-01-02T06:39:37.175Z,99243.38
2023-01-02T06:43:44.117Z,99227.97
2023-01-02T06:47:46.916Z,99227.47
2023-01-02T06:51:50.063Z,99232.63
2023-01-02T06:55:55.916Z,99224.97
2023-01-02T06:59:58.714Z,99229.38
2023-01-02T07:04:01.628Z,99238.63
2023-01-02T07:08:04.620Z,99232.06
2023-01-02T07:12:08.735Z,99242.91
2023-01-02T07:16:13.273Z,99244.94
2023-01-02T07:20:16.191Z,99254.53
2023-01-02T07:24:18.860Z,99252.63
2023-01-02T07:28:23.362Z,99265.75
2023-01-02T07:32:27.711Z,99265.34
2023-01-02T07:36:30.677Z,99274.69
2023-01-02T07:40:33.611Z,99283.47
2023-01-02T07:44:37.838Z,99292.03
2023-01-02T07:48:40.680Z,99296.66
2023-01-02T07:52:43.574Z,99308.22
2023-01-02T07:56:46.779Z,99320.25
2023-01-02T08:00:51.063Z,99316.22
2023-01-02T08:04:53.742Z,99329.28
2023-01-02T08:08:56.572Z,99320.63
2023-01-02T08:12:59.489Z,99320.56
2023-01-02T08:17:03.588Z,99325.25
2023-01-02T08:21:06.882Z,99329.19
2023-01-02T08:25:11.334Z,99317.72
2023-01-02T08:29:14.298Z,99346.44
2023-01-02T08:33:18.418Z,99358.28
2023-01-02T08:37:21.763Z,99369.16
2023-01-02T08:41:34.630Z,99381.00
2023-01-02T08:45:37.379Z,99375.34
2023-01-02T08:49:41.449Z,99381.56
2023-01-02T08:53:44.398Z,99389.06
2023-01-02T08:57:47.033Z,99392.88
2023-01-02T09:01:49.808Z,99404.63
2023-01-02T09:05:55.948Z,99415.94
2023-01-02T09:09:58.659Z,99423.03
2023-01-02T09:14:02.331Z,99421.38
2023-01-02T09:18:05.078Z,99414.47
2023-01-02T09:22:09.488Z,99426.78
2023-01-02T09:26:13.247Z,99443.03
2023-01-02T09:30:15.831Z,99459.94
2023-01-02T09:34:18.603Z,99466.19
2023-01-02T09:38:22.961Z,99466.69
2023-01-02T09:42:25.825Z,99468.81
2023-01-02T09:46:33.519Z,99481.16
2023-01-02T09:50:36.927Z,99490.38
2023-01-02T09:54:41.205Z,99491.28
2023-01-02T09:58:49.162Z,99496.66
2023-01-02T10:03:08.204Z,99495.03
2023-01-02T10:07:14.927Z,99491.94
2023-01-02T10:11:27.157Z,99485.72
2023-01-02T10:15:30.751Z,99494.97
2023-01-02T10:19:42.018Z,99503.38
2023-01-02T10:23:48.575Z,99496.09
2023-01-02T10:27:57.559Z,99489.00
2023-01-02T10:32:01.866Z,99495.41
2023-01-02T10:36:24.330Z,99490.25
2023-01-02T10:40:27.022Z,99495.09
2023-01-02T10:44:39.981Z,99473.97
2023-01-02T10:48:48.371Z,99481.28
2023-01-02T10:52:59.760Z,99485.78
2023-01-02T10:57:02.606Z,99492.13
2023-01-02T11:01:08.791Z,99478.06
2023-01-02T11:05:20.733Z,99475.34
2023-01-02T11:09:32.280Z,99481.88
2023-01-02T11:13:51.933Z,99481.41
2023-01-02T11:17:59.815Z,99463.38
2023-01-02T11:22:02.610Z,99468.06
2023-01-02T11:26:06.858Z,99468.88
2023-01-02T11:30:21.901Z,99464.84
2023-01-02T11:34:27.601Z,99473.47
2023-01-02T11:38:44.215Z,99465.66
2023-01-02T11:43:07.658Z,99472.22
2023-01-02T11:47:11.975Z,99465.31
2023-01-02T11:51:18.039Z,99465.00
2023-01-02T11:55:30.795Z,99445.53
2023-01-02T11:59:37.641Z,99465.66
2023-01-02T12:03:40.886Z,99437.09
2023-01-02T12:07:46.772Z,99463.66
2023-01-02T12:12:02.235Z,99455.19
2023-01-02T12:16:17.194Z,99440.75
2023-01-02T12:20:28.896Z,99464.38
2023-01-02T12:24:59.766Z,99455.50
2023-01-02T12:29:46.838Z,99446.47
2023-01-02T12:33:47.464Z,99451.84
2023-01-02T12:37:55.135Z,99446.75
2023-01-02T12:42:04.856Z,99451.75
2023-01-02T12:46:15.808Z,99455.88
2023-01-02T12:50:27.125Z,99460.13
2023-01-02T12:55:00.208Z,99463.25
2023-01-02T12:59:26.285Z,99474.06
2023-01-02T13:03:43.211Z,99494.31
2023-01-02T13:07:48.824Z,99482.00
2023-01-02T13:12:00.577Z,99501.94
2023-01-02T13:16:22.617Z,99503.88
2023-01-02T13:20:34.076Z,99517.03
2023-01-02T13:24:37.166Z,99514.75
2023-01-02T13:28:43.079Z,99526.84
2023-01-02T13:32:49.122Z,99546.34
2023-01-02T13:36:53.036Z,99555.81
2023-01-02T13:40:58.370Z,99534.81
2023-01-02T13:45:01.901Z,99539.97
2023-01-02T13:49:07.352Z,99555.72
2023-01-02T13:53:28.309Z,99567.78
2023-01-02T13:57:33.966Z,99576.16
2023-01-02T14:02:14.891Z,99583.16
2023-01-02T14:06:33.819Z,99595.53
2023-01-02T14:10:41.872Z,99616.06
2023-01-02T14:14:50.739Z,99617.81
2023-01-02T14:19:14.966Z,99633.94
2023-01-02T14:23:28.441Z,99622.25
2023-01-02T14:27:33.922Z,99642.72
2023-01-02T14:31:43.654Z,99661.06
2023-01-02T14:35:51.977Z,99667.03
2023-01-02T14:39:57.704Z,99673.56
2023-01-02T14:44:01.069Z,99683.00
2023-01-02T14:48:08.854Z,99671.81
2023-01-02T14:52:15.110Z,99704.13
2023-01-02T14:56:40.385Z,99699.88
2023-01-02T15:00:49.038Z,99702.81
2023-01-02T15:04:54.451Z,99696.94
2023-01-02T15:09:02.103Z,99708.56
2023-01-02T15:13:07.496Z,99709.34
2023-01-02T15:17:12.279Z,99681.44
2023-01-02T15:21:15.941Z,99678.47
2023-01-02T15:25:32.250Z,99668.44
2023-01-02T15:29:36.197Z,99688.63
2023-01-02T15:33:39.472Z,99718.44
2023-01-02T15:37:43.700Z,99733.25
2023-01-02T15:41:49.311Z,99746.66
2023-01-02T15:45:54.303Z,99769.13
2023-01-02T15:49:57.643Z,99775.66
2023-01-02T15:54:03.472Z,99779.69
2023-01-02T15:58:25.516Z,99790.22
2023-01-02T16:02:37.703Z,99803.16
2023-01-02T16:06:42.759Z,99814.22
2023-01-02T16:10:50.732Z,99824.59
2023-01-02T16:14:56.152Z,99817.81
2023-01-02T16:19:01.648Z,99833.25
2023-01-02T16:23:06.069Z,99852.25
2023-01-02T16:27:13.878Z,99831.50
2023-01-02T16:31:18.242Z,99862.56
2023-01-02T16:35:25.441Z,99867.03
2023-01-02T16:39:42.527Z,99876.34
2023-01-02T16:43:47.833Z,99886.69
2023-01-02T16:47:51.254Z,99874.75
2023-01-02T16:51:55.919Z,99891.97
2023-01-02T16:55:59.598Z,99897.09
2023-01-02T17:00:03.331Z,99911.22
2023-01-02T17:04:06.240Z,99911.78
2023-01-02T17:08:10.474Z,99920.22
2023-01-02T17:12:13.997Z,99918.72
2023-01-02T17:16:17.217Z,99922.63
2023-01-02T17:20:21.081Z,99925.66
2023-01-02T17:24:25.316Z,99927.72
2023-01-02T17:28:30.777Z,99935.63
2023-01-02T17:32:33.987Z,99941.91
2023-01-02T17:36:37.184Z,99952.22
2023-01-02T17:40:41.761Z,99960.09
2023-01-02T17:44:45.461Z,99957.50
2023-01-02T17:48:48.470Z,99964.59
2023-01-02T17:52:51.394Z,99964.84
2023-01-02T17:56:56.595Z,99993.59
2023-01-02T18:01:01.146Z,99988.09
2023-01-02T18:05:04.252Z,99995.38
2023-01-02T18:09:07.784Z,99999.47
2023-01-02T18:13:18.962Z,99995.63
2023-01-02T18:17:30.042Z,100007.84
2023-01-02T18:21:34.198Z,100004.13
2023-01-02T18:25:37.420Z,100005.66
2023-01-02T18:29:45.108Z,100014.56
2023-01-02T18:33:48.359Z,100002.69
2023-01-02T18:37:52.735Z,100019.47
2023-01-02T18:41:59.652Z,100032.66
2023-01-02T18:46:12.845Z,100041.56
2023-01-02T18:50:33.617Z,100041.63
2023-01-02T18:54:36.425Z,100058.56
2023-01-02T18:58:43.366Z,100070.09
2023-01-02T19:02:55.808Z,100068.13
2023-01-02T19:07:02.898Z,100083.94
2023-01-02T19:11:28.880Z,100075.78
2023-01-02T19:15:40.658Z,100052.56
2023-01-02T19:19:45.811Z,100083.34
2023-01-02T19:23:53.742Z,100084.75
2023-01-02T19:27:57.959Z,100090.38
2023-01-02T19:32:05.046Z,100082.09
2023-01-02T19:36:15.556Z,100098.31
2023-01-02T19:40:21.149Z,100097.94
2023-01-02T19:44:24.678Z,100103.03
2023-01-02T19:48:28.159Z,100097.41
2023-01-02T19:52:33.001Z,100098.47
2023-01-02T19:56:36.901Z,100106.16
2023-01-02T20:00:39.875Z,100113.69
2023-01-02T20:04:43.243Z,100117.31
2023-01-02T20:08:47.406Z,100129.47
2023-01-02T20:12:51.280Z,100125.22
2023-01-02T20:16:54.108Z,100128.06
2023-01-02T20:20:57.580Z,100139.41
2023-01-02T20:25:02.032Z,100136.59
2023-01-02T20:29:05.709Z,100132.53
2023-01-02T20:33:11.435Z,100145.06
2023-01-02T20:37:21.247Z,100142.44
2023-01-02T20:41:25.451Z,100151.38
2023-01-02T20:45:28.617Z,100156.41
2023-01-02T20:49:31.986Z,100170.19
2023-01-02T20:53:35.829Z,100179.09
2023-01-02T20:57:44.060Z,100173.03
2023-01-02T21:01:48.228Z,100176.25
2023-01-02T21:05:53.929Z,100181.31
2023-01-02T21:09:59.145Z,100177.66
2023-01-02T21:14:04.483Z,100184.38
2023-01-02T21:18:07.652Z,100184.34
2023-01-02T21:22:10.793Z,100202.78
2023-01-02T21:26:15.360Z,100207.25
2023-01-02T21:30:20.552Z,100215.53
2023-01-02T21:34:33.314Z,100217.75
2023-01-02T21:38:39.950Z,100226.56
2023-01-02T21:42:46.715Z,100222.50
2023-01-02T21:46:53.999Z,100216.25
2023-01-02T21:51:00.906Z,100222.09
2023-01-02T21:55:07.423Z,100222.13
2023-01-02T21:59:10.960Z,100224.31
2023-01-02T22:03:15.832Z,100227.56
2023-01-02T22:07:31.672Z,100235.06
2023-01-02T22:11:52.756Z,100223.94
2023-01-02T22:15:59.415Z,100232.41
2023-01-02T22:20:04.481Z,100238.63
2023-01-02T22:24:08.419Z,100237.03
2023-01-02T22:28:11.494Z,100243.31
2023-01-02T22:32:16.122Z,100250.31
2023-01-02T22:36:20.450Z,100261.03
2023-01-02T22:40:24.295Z,100258.22
2023-01-02T22:44:28.080Z,100271.41
2023-01-02T22:48:38.425Z,100275.41
2023-01-02T22:52:43.638Z,100282.84
2023-01-02T22:56:47.506Z,100286.63
2023-01-02T23:00:58.848Z,100291.53
2023-01-02T23:05:05.132Z,100289.91
2023-01-02T23:09:12.010Z,100305.56
2023-01-02T23:13:15.172Z,100299.47
2023-01-02T23:17:35.725Z,100292.41
2023-01-02T23:21:40.668Z,100304.34
2023-01-02T23:25:55.954Z,100313.66
2023-01-02T23:29:59.325Z,100303.94
2023-01-02T23:34:04.329Z,100304.56
2023-01-02T23:38:08.216Z,100313.25
2023-01-02T23:42:15.887Z,100311.22
2023-01-02T23:46:26.071Z,100319.34
2023-01-02T23:50:29.446Z,100319.97
2023-01-02T23:54:33.305Z,100324.00
2023-01-02T23:58:39.788Z,100329.25
